Time;durP1;ratioP1;P1;durP2;ratioP2;P2;SDS_P1;SDS_P2;PMS_P1;PMS_P2;Temp;Humidity;BMP_temperature;BMP_pressure;BME280_temperature;BME280_humidity;BME280_pressure;Samples;Min_cycle;Max_cycle;Signal;HPM_P1;HPM_P2
2021/12/22 00:02:23;;;;;;;;;;;-7.80;99.90;;;;;;5083374;28;20402;-86
2021/12/22 00:04:49;;;;;;;;;;;-7.80;99.90;;;;;;5082888;28;19908;-86
2021/12/22 00:07:15;;;;;;;;;;;-7.90;99.90;;;;;;5084039;28;19954;-87
2021/12/22 00:09:42;;;;;;;;;;;-8.00;99.90;;;;;;5083276;28;19908;-86
2021/12/22 00:12:07;;;;;;;;;;;-8.00;99.90;;;;;;5082870;28;19915;-86
2021/12/22 00:14:33;;;;;;;;;;;-8.10;99.90;;;;;;5090151;28;19908;-84
2021/12/22 00:16:58;;;;;;;;;;;-8.10;99.90;;;;;;5100239;28;19912;-85
2021/12/22 00:19:24;;;;;;;;;;;-8.10;99.90;;;;;;5081143;28;20393;-85
2021/12/22 00:21:50;;;;;;;;;;;-8.10;99.90;;;;;;5081092;28;19938;-86
2021/12/22 00:24:15;;;;;;;;;;;-8.10;99.90;;;;;;5079729;28;19924;-85
2021/12/22 00:26:41;;;;;;;;;;;-8.10;99.90;;;;;;5098338;28;20263;-85
2021/12/22 00:29:08;;;;;;;;;;;-8.10;99.90;;;;;;5079645;28;20362;-85
2021/12/22 00:31:41;;;;;;;;;;;-7.90;99.90;;;;;;5097639;28;19908;-85
2021/12/22 00:34:15;;;;;;;;;;;-8.00;99.90;;;;;;5098116;28;19908;-85
2021/12/22 00:36:40;;;;;;;;;;;-8.00;99.90;;;;;;5097722;28;19987;-85
2021/12/22 00:39:06;;;;;;;;;;;-8.00;99.90;;;;;;5097599;28;19947;-85
2021/12/22 00:41:31;;;;;;;;;;;-8.00;99.90;;;;;;5098024;28;20432;-85
2021/12/22 00:43:57;;;;;;;;;;;-7.90;99.90;;;;;;5080414;28;19908;-85
2021/12/22 00:46:22;;;;;;;;;;;-8.00;99.90;;;;;;5080253;28;19961;-85
2021/12/22 00:48:48;;;;;;;;;;;-8.00;99.90;;;;;;5080297;28;19915;-85
2021/12/22 00:51:13;;;;;;;;;;;-8.00;99.90;;;;;;5079650;28;20367;-85
2021/12/22 00:53:39;;;;;;;;;;;-8.00;99.90;;;;;;5079521;28;19908;-85
2021/12/22 00:56:06;;;;;;;;;;;-8.00;99.90;;;;;;5079395;28;19919;-84
2021/12/22 00:58:32;;;;;;;;;;;-8.00;99.90;;;;;;5085973;28;19912;-85
2021/12/22 01:00:57;;;;;;;;;;;-8.00;99.90;;;;;;5096375;28;19908;-85
2021/12/22 01:03:23;;;;;;;;;;;-8.10;99.90;;;;;;5079284;28;20006;-85
2021/12/22 01:05:48;;;;;;;;;;;-8.10;99.90;;;;;;5065569;28;19961;-85
2021/12/22 01:08:15;;;;;;;;;;;-8.30;99.90;;;;;;5078835;28;19908;-85
2021/12/22 01:10:41;;;;;;;;;;;-8.20;99.90;;;;;;5078372;28;20378;-85
2021/12/22 01:13:07;;;;;;;;;;;-8.20;99.90;;;;;;5079030;28;19971;-86
2021/12/22 01:15:33;;;;;;;;;;;-8.00;99.90;;;;;;5079234;28;19908;-86
2021/12/22 01:18:01;;;;;;;;;;;-8.10;99.90;;;;;;5078868;28;19913;-85
2021/12/22 01:20:35;;;;;;;;;;;-8.10;99.90;;;;;;5096968;28;19930;-85
2021/12/22 01:23:02;;;;;;;;;;;-8.20;99.90;;;;;;5078893;28;19946;-86
2021/12/22 01:25:29;;;;;;;;;;;-8.20;99.90;;;;;;5078356;28;19908;-86
2021/12/22 01:27:55;;;;;;;;;;;-8.30;99.90;;;;;;5079829;28;19944;-86
2021/12/22 01:30:25;;;;;;;;;;;-8.30;99.90;;;;;;5113450;28;19907;-85
2021/12/22 01:32:52;;;;;;;;;;;-8.40;99.90;;;;;;5083721;28;19919;-85
2021/12/22 01:35:19;;;;;;;;;;;-8.40;99.90;;;;;;5095989;28;19970;-85
2021/12/22 01:37:45;;;;;;;;;;;-8.50;99.90;;;;;;5077361;28;19912;-85
2021/12/22 01:40:11;;;;;;;;;;;-8.50;99.90;;;;;;5077832;28;19920;-85
2021/12/22 01:42:38;;;;;;;;;;;-8.30;99.90;;;;;;5081588;28;19905;-85
2021/12/22 01:45:25;;;;;;;;;;;-8.20;99.90;;;;;;5079641;28;20283;-84
2021/12/22 01:50:39;;;;;;;;;;;-8.40;99.90;;;;;;5096142;28;19934;-86
2021/12/22 01:53:06;;;;;;;;;;;-8.60;99.90;;;;;;5079512;28;19908;-85
2021/12/22 01:55:36;;;;;;;;;;;-8.60;99.90;;;;;;5079254;28;20281;-84
2021/12/22 01:58:05;;;;;;;;;;;-8.60;99.90;;;;;;5081721;28;19918;-85
2021/12/22 02:00:30;;;;;;;;;;;-8.60;99.90;;;;;;5082337;28;19912;-85
2021/12/22 02:02:57;;;;;;;;;;;-8.70;99.90;;;;;;5079431;28;20352;-87
2021/12/22 02:05:23;;;;;;;;;;;-8.60;99.90;;;;;;5080296;28;20367;-85
2021/12/22 02:07:55;;;;;;;;;;;-8.40;99.90;;;;;;5079559;28;19916;-86
2021/12/22 02:10:46;;;;;;;;;;;-8.50;99.90;;;;;;5079450;28;19912;-86
2021/12/22 02:13:15;;;;;;;;;;;-8.50;99.90;;;;;;5096528;28;19908;-85
2021/12/22 02:15:41;;;;;;;;;;;-8.60;99.90;;;;;;5078992;28;20479;-86
2021/12/22 02:18:06;;;;;;;;;;;-8.70;99.90;;;;;;5096377;28;19916;-85
2021/12/22 02:20:32;;;;;;;;;;;-8.80;99.90;;;;;;5078528;28;19915;-85
2021/12/22 02:22:58;;;;;;;;;;;-8.60;99.90;;;;;;5078022;28;20374;-86
2021/12/22 02:25:32;;;;;;;;;;;-8.80;99.90;;;;;;5077971;28;20290;-85
2021/12/22 02:27:59;;;;;;;;;;;-8.70;99.90;;;;;;5062355;28;19912;-86
2021/12/22 02:30:27;;;;;;;;;;;-8.60;99.90;;;;;;5077967;28;20397;-86
2021/12/22 02:35:27;;;;;;;;;;;-8.50;99.90;;;;;;5096319;28;19908;-85
2021/12/22 02:37:53;;;;;;;;;;;-8.50;99.90;;;;;;5078162;28;19947;-85
2021/12/22 02:40:25;;;;;;;;;;;-8.60;99.90;;;;;;5078365;28;19916;-85
2021/12/22 02:43:02;;;;;;;;;;;-8.80;99.90;;;;;;5095438;28;19912;-85
2021/12/22 02:45:28;;;;;;;;;;;-8.90;99.90;;;;;;5076903;28;20432;-85
2021/12/22 02:47:53;;;;;;;;;;;-9.00;99.90;;;;;;5094780;28;19912;-85
2021/12/22 02:50:19;;;;;;;;;;;-9.00;99.90;;;;;;5077197;28;19912;-85
2021/12/22 02:53:03;;;;;;;;;;;-8.80;99.90;;;;;;5095069;28;19955;-86
2021/12/22 02:55:42;;;;;;;;;;;-8.70;99.90;;;;;;5094852;28;19947;-86
2021/12/22 02:58:08;;;;;;;;;;;-8.60;99.90;;;;;;5093369;28;20479;-85
2021/12/22 03:03:47;;;;;;;;;;;-8.70;99.90;;;;;;5082073;28;19947;-85
2021/12/22 03:06:16;;;;;;;;;;;-8.80;99.90;;;;;;5076602;28;19919;-85
2021/12/22 03:08:42;;;;;;;;;;;-9.10;99.90;;;;;;5094553;28;19912;-85
2021/12/22 03:11:07;;;;;;;;;;;-9.10;99.90;;;;;;5076242;28;19931;-85
2021/12/22 03:13:33;;;;;;;;;;;-8.80;99.90;;;;;;5076232;28;19946;-85
2021/12/22 03:15:58;;;;;;;;;;;-8.80;99.90;;;;;;5076146;28;19950;-85
2021/12/22 03:18:24;;;;;;;;;;;-9.00;99.90;;;;;;5076784;28;20404;-86
2021/12/22 03:20:58;;;;;;;;;;;-8.80;99.90;;;;;;5094670;28;19919;-85
2021/12/22 03:23:24;;;;;;;;;;;-8.80;99.90;;;;;;5094705;28;20382;-86
2021/12/22 03:25:49;;;;;;;;;;;-9.00;99.90;;;;;;5079915;28;19909;-85
2021/12/22 03:28:15;;;;;;;;;;;-9.00;99.90;;;;;;5104154;28;19939;-85
2021/12/22 03:30:40;;;;;;;;;;;-9.20;99.90;;;;;;5114376;28;19912;-85
2021/12/22 03:33:06;;;;;;;;;;;-9.10;99.90;;;;;;5060085;28;20314;-86
2021/12/22 03:35:34;;;;;;;;;;;-9.00;99.90;;;;;;5088181;28;19966;-85
2021/12/22 03:38:00;;;;;;;;;;;-9.10;99.90;;;;;;5080146;28;19908;-85
2021/12/22 03:40:26;;;;;;;;;;;-9.10;99.90;;;;;;5079798;28;19916;-85
2021/12/22 03:42:51;;;;;;;;;;;-9.10;99.90;;;;;;5080301;28;19908;-85
2021/12/22 03:45:17;;;;;;;;;;;-9.10;99.90;;;;;;5079879;28;19908;-85
2021/12/22 03:47:43;;;;;;;;;;;-9.00;99.90;;;;;;5079432;28;19945;-85
2021/12/22 03:50:09;;;;;;;;;;;-9.00;99.90;;;;;;5098094;28;19908;-85
2021/12/22 03:52:35;;;;;;;;;;;-9.10;99.90;;;;;;5079531;28;19923;-84
2021/12/22 03:55:01;;;;;;;;;;;-9.10;99.90;;;;;;5079267;28;19912;-85
2021/12/22 03:57:27;;;;;;;;;;;-9.00;99.90;;;;;;5078819;28;19916;-86
2021/12/22 03:59:53;;;;;;;;;;;-9.00;99.90;;;;;;5092919;28;19908;-85
2021/12/22 04:02:20;;;;;;;;;;;-9.10;99.90;;;;;;5099847;28;19908;-85
2021/12/22 04:04:48;;;;;;;;;;;-9.10;99.90;;;;;;5117477;28;19908;-85
2021/12/22 04:07:14;;;;;;;;;;;-9.10;99.90;;;;;;5099045;28;19934;-85
2021/12/22 04:09:39;;;;;;;;;;;-9.30;99.90;;;;;;5099000;28;20429;-85
2021/12/22 04:12:05;;;;;;;;;;;-9.30;99.90;;;;;;5090890;28;20011;-85
2021/12/22 04:14:30;;;;;;;;;;;-9.30;99.90;;;;;;5096671;28;20011;-85
2021/12/22 04:16:56;;;;;;;;;;;-9.20;99.90;;;;;;5096069;28;19946;-86
2021/12/22 04:19:21;;;;;;;;;;;-9.20;99.90;;;;;;5078080;28;20355;-85
2021/12/22 04:21:49;;;;;;;;;;;-9.40;99.90;;;;;;5077996;28;19916;-85
2021/12/22 04:24:14;;;;;;;;;;;-9.30;99.90;;;;;;5077634;28;19958;-86
2021/12/22 04:26:40;;;;;;;;;;;-9.00;99.90;;;;;;5078059;28;19912;-86
2021/12/22 04:29:05;;;;;;;;;;;-9.20;99.90;;;;;;5078209;28;19917;-85
2021/12/22 04:31:31;;;;;;;;;;;-9.30;99.90;;;;;;5097233;28;19908;-85
2021/12/22 04:33:56;;;;;;;;;;;-9.30;99.90;;;;;;5098058;28;19962;-85
2021/12/22 04:36:22;;;;;;;;;;;-9.40;99.90;;;;;;5096859;28;19908;-85
2021/12/22 04:38:47;;;;;;;;;;;-9.30;99.90;;;;;;5078452;28;19916;-85
2021/12/22 04:41:13;;;;;;;;;;;-9.30;99.90;;;;;;5078562;28;20621;-85
2021/12/22 04:43:38;;;;;;;;;;;-9.30;99.90;;;;;;5096911;28;19953;-85
2021/12/22 04:46:04;;;;;;;;;;;-9.30;99.90;;;;;;5096916;28;19977;-85
2021/12/22 04:48:31;;;;;;;;;;;-9.20;99.90;;;;;;5078876;28;19918;-85
2021/12/22 04:50:56;;;;;;;;;;;-9.10;99.90;;;;;;5078746;28;20282;-85
2021/12/22 04:53:26;;;;;;;;;;;-9.10;99.90;;;;;;5078078;28;19908;-85
2021/12/22 04:55:51;;;;;;;;;;;-9.10;99.90;;;;;;5100141;28;19912;-84
2021/12/22 04:58:17;;;;;;;;;;;-9.00;99.90;;;;;;5084129;28;19914;-85
2021/12/22 05:00:42;;;;;;;;;;;-9.10;99.90;;;;;;5075325;28;19908;-85
2021/12/22 05:03:08;;;;;;;;;;;-9.20;99.90;;;;;;5080171;28;20319;-84
2021/12/22 05:05:34;;;;;;;;;;;-9.20;99.90;;;;;;5080114;28;20476;-85
2021/12/22 05:08:00;;;;;;;;;;;-9.30;99.90;;;;;;5079995;28;19962;-85
2021/12/22 05:10:26;;;;;;;;;;;-9.40;99.90;;;;;;5097418;28;20274;-85
2021/12/22 05:12:51;;;;;;;;;;;-9.40;99.90;;;;;;5079199;28;20397;-85
2021/12/22 05:15:19;;;;;;;;;;;-9.40;99.90;;;;;;5078950;28;19908;-85
2021/12/22 05:20:12;;;;;;;;;;;-9.20;99.90;;;;;;5096339;28;19919;-86
2021/12/22 05:22:37;;;;;;;;;;;-9.40;99.90;;;;;;5096185;28;20367;-85
2021/12/22 05:25:04;;;;;;;;;;;-9.50;99.90;;;;;;5077785;28;19962;-85
2021/12/22 05:27:30;;;;;;;;;;;-9.50;99.90;;;;;;5076794;28;19969;-85
2021/12/22 05:29:56;;;;;;;;;;;-9.50;99.90;;;;;;5114702;28;19916;-85
2021/12/22 05:32:25;;;;;;;;;;;-9.50;99.90;;;;;;5083128;28;19908;-85
2021/12/22 05:34:51;;;;;;;;;;;-9.50;99.90;;;;;;5077273;28;19912;-85
2021/12/22 05:37:16;;;;;;;;;;;-9.60;99.90;;;;;;5095695;28;19916;-85
2021/12/22 05:39:42;;;;;;;;;;;-9.60;99.90;;;;;;5077303;28;20359;-85
2021/12/22 05:42:07;;;;;;;;;;;-9.70;99.90;;;;;;5076533;28;20381;-85
2021/12/22 05:44:33;;;;;;;;;;;-9.70;99.90;;;;;;5059551;28;19912;-87
2021/12/22 05:46:58;;;;;;;;;;;-9.70;99.90;;;;;;5085558;28;19919;-85
2021/12/22 05:49:24;;;;;;;;;;;-9.50;99.90;;;;;;5077468;28;20025;-86
2021/12/22 05:51:49;;;;;;;;;;;-9.40;99.90;;;;;;5095687;28;19915;-85
2021/12/22 05:54:15;;;;;;;;;;;-9.40;99.90;;;;;;5076888;28;20274;-85
2021/12/22 05:56:40;;;;;;;;;;;-9.50;99.90;;;;;;5077162;28;19912;-85
2021/12/22 05:59:06;;;;;;;;;;;-9.50;99.90;;;;;;5089578;28;20479;-85
2021/12/22 06:01:32;;;;;;;;;;;-9.50;99.90;;;;;;5097154;28;19958;-85
2021/12/22 06:03:59;;;;;;;;;;;-9.60;99.90;;;;;;5115036;28;19908;-84
2021/12/22 06:06:25;;;;;;;;;;;-9.70;99.90;;;;;;5077374;28;19915;-85
2021/12/22 06:08:50;;;;;;;;;;;-9.60;99.90;;;;;;5077038;28;19912;-85
2021/12/22 06:11:16;;;;;;;;;;;-9.60;99.90;;;;;;5076415;28;20278;-85
2021/12/22 06:13:41;;;;;;;;;;;-9.70;99.90;;;;;;5076344;28;19908;-85
2021/12/22 06:16:07;;;;;;;;;;;-9.60;99.90;;;;;;5094283;28;20385;-85
2021/12/22 06:18:34;;;;;;;;;;;-9.60;99.90;;;;;;5094784;28;19908;-85
2021/12/22 06:21:00;;;;;;;;;;;-9.40;99.90;;;;;;5076496;28;20304;-85
2021/12/22 06:23:25;;;;;;;;;;;-9.50;99.90;;;;;;5094132;28;19916;-85
2021/12/22 06:25:51;;;;;;;;;;;-9.50;99.90;;;;;;5094059;28;19908;-85
2021/12/22 06:28:16;;;;;;;;;;;-9.70;99.90;;;;;;5081885;28;19957;-85
2021/12/22 06:30:42;;;;;;;;;;;-9.60;99.90;;;;;;5094556;28;20435;-84
2021/12/22 06:33:07;;;;;;;;;;;-9.50;99.90;;;;;;5077418;28;19916;-85
2021/12/22 06:35:33;;;;;;;;;;;-9.50;99.90;;;;;;5056162;28;20430;-84
2021/12/22 06:37:58;;;;;;;;;;;-9.50;99.90;;;;;;5055672;28;20007;-85
2021/12/22 06:40:24;;;;;;;;;;;-9.50;99.90;;;;;;5070532;28;19916;-84
2021/12/22 06:42:49;;;;;;;;;;;-9.50;99.90;;;;;;5081769;28;19962;-85
2021/12/22 06:45:15;;;;;;;;;;;-9.30;99.90;;;;;;5075880;28;19979;-85
2021/12/22 06:47:41;;;;;;;;;;;-9.10;99.90;;;;;;5075291;28;20524;-85
2021/12/22 06:50:07;;;;;;;;;;;-9.20;99.90;;;;;;5075493;28;19948;-85
2021/12/22 06:52:32;;;;;;;;;;;-9.10;99.90;;;;;;5093639;28;20290;-85
2021/12/22 06:54:58;;;;;;;;;;;-9.10;99.90;;;;;;5093772;28;19937;-85
2021/12/22 06:57:24;;;;;;;;;;;-8.90;99.90;;;;;;5077060;28;20442;-85
2021/12/22 06:59:49;;;;;;;;;;;-8.80;99.90;;;;;;5106053;28;19920;-87
2021/12/22 07:02:16;;;;;;;;;;;-8.80;99.90;;;;;;5100869;28;19901;-87
2021/12/22 07:04:41;;;;;;;;;;;-8.80;99.90;;;;;;5100477;28;19896;-88
2021/12/22 07:07:07;;;;;;;;;;;-9.10;99.90;;;;;;5093973;28;19911;-87
2021/12/22 07:09:32;;;;;;;;;;;-9.40;99.90;;;;;;5118470;28;19901;-87
2021/12/22 07:11:58;;;;;;;;;;;-9.50;99.90;;;;;;5100762;28;19923;-86
2021/12/22 07:14:23;;;;;;;;;;;-9.70;99.90;;;;;;5100689;28;19900;-87
2021/12/22 07:16:49;;;;;;;;;;;-9.70;99.90;;;;;;5100698;28;19918;-87
2021/12/22 07:19:14;;;;;;;;;;;-9.60;99.90;;;;;;5100863;28;19896;-87
2021/12/22 07:21:40;;;;;;;;;;;-9.80;99.90;;;;;;5100763;28;19912;-86
2021/12/22 07:24:06;;;;;;;;;;;-9.80;99.90;;;;;;5091646;28;19912;-85
2021/12/22 07:26:31;;;;;;;;;;;-9.80;99.90;;;;;;5097236;28;19908;-85
2021/12/22 07:28:57;;;;;;;;;;;-9.80;99.90;;;;;;5073490;28;20382;-85
2021/12/22 07:31:23;;;;;;;;;;;-9.70;99.90;;;;;;5093316;28;19953;-86
2021/12/22 07:33:52;;;;;;;;;;;-9.70;99.90;;;;;;5098736;28;19908;-85
2021/12/22 07:36:18;;;;;;;;;;;-9.70;99.90;;;;;;5076553;28;19962;-85
2021/12/22 07:38:47;;;;;;;;;;;-9.50;99.90;;;;;;5095060;28;19908;-86
2021/12/22 07:41:13;;;;;;;;;;;-9.30;99.90;;;;;;5078075;28;20274;-85
2021/12/22 07:43:39;;;;;;;;;;;-9.30;99.90;;;;;;5095483;28;19914;-85
2021/12/22 07:46:08;;;;;;;;;;;-9.30;99.90;;;;;;5077749;28;19915;-84
2021/12/22 07:48:34;;;;;;;;;;;-9.40;99.90;;;;;;5079469;28;20366;-85
2021/12/22 07:50:59;;;;;;;;;;;-9.50;99.90;;;;;;5098495;28;19932;-84
2021/12/22 07:53:25;;;;;;;;;;;-9.30;99.90;;;;;;5096390;28;19939;-85
2021/12/22 07:55:54;;;;;;;;;;;-9.20;99.90;;;;;;5078809;28;19908;-85
2021/12/22 07:58:23;;;;;;;;;;;-9.30;99.90;;;;;;5084887;28;20286;-86
2021/12/22 08:00:49;;;;;;;;;;;-9.40;99.90;;;;;;5096985;28;19918;-85
2021/12/22 08:03:15;;;;;;;;;;;-9.40;99.90;;;;;;5079813;28;19908;-85
2021/12/22 08:05:40;;;;;;;;;;;-9.40;99.90;;;;;;5080701;28;20446;-85
2021/12/22 08:08:06;;;;;;;;;;;-9.30;99.90;;;;;;5080633;28;20378;-86
2021/12/22 08:10:31;;;;;;;;;;;-9.10;99.90;;;;;;5080489;28;19954;-86
2021/12/22 08:12:57;;;;;;;;;;;-9.00;99.90;;;;;;5083301;28;20010;-85
2021/12/22 08:15:23;;;;;;;;;;;-8.70;99.90;;;;;;5083159;28;19908;-86
2021/12/22 08:17:48;;;;;;;;;;;-8.60;99.90;;;;;;5100838;28;19990;-86
2021/12/22 08:20:14;;;;;;;;;;;-8.50;99.90;;;;;;5084185;28;19908;-85
2021/12/22 08:22:39;;;;;;;;;;;-8.50;99.90;;;;;;5099173;28;19896;-87
2021/12/22 08:25:06;;;;;;;;;;;-8.40;99.90;;;;;;5107098;28;19912;-85
2021/12/22 08:27:32;;;;;;;;;;;-8.30;99.90;;;;;;5080990;28;20402;-86
2021/12/22 08:29:58;;;;;;;;;;;-8.20;99.90;;;;;;5101251;28;19908;-85
2021/12/22 08:32:23;;;;;;;;;;;-8.20;99.90;;;;;;5078426;28;19931;-86
2021/12/22 08:34:54;;;;;;;;;;;-7.60;99.90;;;;;;5093518;28;19916;-85
2021/12/22 08:40:04;;;;;;;;;;;-6.80;99.90;;;;;;5098433;28;19923;-87
2021/12/22 08:42:30;;;;;;;;;;;-6.60;99.90;;;;;;5082993;28;19962;-87
2021/12/22 08:44:55;;;;;;;;;;;-6.70;99.90;;;;;;5100214;28;19928;-85
2021/12/22 08:47:21;;;;;;;;;;;-6.60;99.90;;;;;;5099249;28;20468;-85
2021/12/22 08:49:46;;;;;;;;;;;-6.20;99.90;;;;;;5080171;28;20011;-86
2021/12/22 08:52:12;;;;;;;;;;;-5.90;99.90;;;;;;5079600;28;19908;-85
2021/12/22 08:54:38;;;;;;;;;;;-5.40;99.90;;;;;;5081319;28;20015;-86
2021/12/22 08:57:03;;;;;;;;;;;-4.90;99.90;;;;;;5098687;28;19908;-87
2021/12/22 08:59:29;;;;;;;;;;;-4.80;99.90;;;;;;5085721;28;19999;-87
2021/12/22 09:01:54;;;;;;;;;;;-4.50;99.90;;;;;;5076577;28;19916;-86
2021/12/22 09:04:20;;;;;;;;;;;-4.00;99.90;;;;;;5073416;28;19916;-86
2021/12/22 09:06:46;;;;;;;;;;;-3.50;99.90;;;;;;5078215;28;19923;-86
2021/12/22 09:09:12;;;;;;;;;;;-1.90;99.90;;;;;;5080003;28;20286;-86
2021/12/22 09:11:38;;;;;;;;;;;-1.10;99.90;;;;;;5096370;28;19908;-86
2021/12/22 09:14:05;;;;;;;;;;;-0.50;99.90;;;;;;5096304;28;19969;-85
2021/12/22 09:16:35;;;;;;;;;;;-0.10;99.90;;;;;;5078876;28;19967;-86
2021/12/22 09:19:02;;;;;;;;;;;0.60;99.90;;;;;;5078809;28;20375;-86
2021/12/22 09:21:27;;;;;;;;;;;0.70;99.90;;;;;;5090593;28;19970;-85
2021/12/22 09:23:53;;;;;;;;;;;1.00;99.90;;;;;;5100493;28;20370;-85
2021/12/22 09:26:19;;;;;;;;;;;0.80;99.90;;;;;;5081285;28;19908;-86
2021/12/22 09:28:44;;;;;;;;;;;1.30;99.90;;;;;;5105923;28;19912;-85
2021/12/22 09:31:10;;;;;;;;;;;2.00;99.50;;;;;;5079147;28;20375;-85
2021/12/22 09:33:36;;;;;;;;;;;2.60;98.30;;;;;;5096322;28;20378;-85
2021/12/22 09:36:04;;;;;;;;;;;1.70;98.60;;;;;;5066256;28;19915;-85
2021/12/22 09:38:29;;;;;;;;;;;0.80;99.40;;;;;;5065515;28;19912;-85
2021/12/22 09:40:55;;;;;;;;;;;0.70;99.90;;;;;;5058081;28;19916;-86
2021/12/22 09:43:20;;;;;;;;;;;1.10;99.90;;;;;;5075516;28;19965;-86
2021/12/22 09:45:51;;;;;;;;;;;2.20;99.60;;;;;;5075383;28;19915;-86
2021/12/22 09:48:27;;;;;;;;;;;2.00;99.50;;;;;;5102401;28;19916;-85
2021/12/22 09:53:26;;;;;;;;;;;1.10;99.90;;;;;;5099813;28;19944;-86
2021/12/22 09:55:52;;;;;;;;;;;1.60;99.90;;;;;;5093387;28;20282;-86
2021/12/22 09:58:18;;;;;;;;;;;2.90;99.80;;;;;;5085068;28;20431;-86
2021/12/22 10:00:44;;;;;;;;;;;3.80;98.70;;;;;;5082367;28;19912;-87
2021/12/22 10:03:11;;;;;;;;;;;4.20;96.80;;;;;;5098796;28;19915;-86
2021/12/22 10:05:37;;;;;;;;;;;5.00;95.40;;;;;;5081404;28;20409;-86
2021/12/22 10:08:16;;;;;;;;;;;6.20;94.80;;;;;;5096499;28;19912;-86
2021/12/22 10:10:47;;;;;;;;;;;6.50;93.60;;;;;;5092793;28;19908;-86
2021/12/22 10:13:14;;;;;;;;;;;6.30;93.20;;;;;;5078714;28;19931;-86
2021/12/22 10:15:40;;;;;;;;;;;6.60;91.30;;;;;;5105267;28;20033;-85
2021/12/22 10:18:16;;;;;;;;;;;5.20;91.40;;;;;;5104406;28;19908;-86
2021/12/22 10:20:45;;;;;;;;;;;5.30;92.30;;;;;;5084453;28;20390;-86
2021/12/22 10:23:27;;;;;;;;;;;5.20;91.70;;;;;;5086662;28;19912;-86
2021/12/22 10:25:54;;;;;;;;;;;3.90;93.60;;;;;;5097509;28;20357;-86
2021/12/22 10:28:20;;;;;;;;;;;3.20;94.00;;;;;;5081579;28;19923;-86
2021/12/22 10:30:47;;;;;;;;;;;2.70;94.80;;;;;;5076928;28;19909;-86
2021/12/22 10:33:17;;;;;;;;;;;2.50;95.50;;;;;;5079853;28;19908;-86
2021/12/22 10:35:47;;;;;;;;;;;2.60;96.00;;;;;;5093415;28;20572;-85
2021/12/22 10:38:14;;;;;;;;;;;1.70;96.10;;;;;;5078345;28;19967;-86
2021/12/22 10:40:41;;;;;;;;;;;1.20;97.60;;;;;;5083508;28;20325;-86
2021/12/22 10:43:07;;;;;;;;;;;1.60;97.30;;;;;;5109032;28;19908;-85
2021/12/22 10:45:36;;;;;;;;;;;2.10;96.50;;;;;;5089962;28;19930;-85
2021/12/22 10:50:54;;;;;;;;;;;1.60;97.50;;;;;;5079928;28;19916;-86
2021/12/22 10:53:20;;;;;;;;;;;1.50;98.20;;;;;;5095914;28;19912;-85
2021/12/22 10:55:47;;;;;;;;;;;1.10;97.70;;;;;;5101864;28;19954;-87
2021/12/22 10:58:24;;;;;;;;;;;0.50;99.80;;;;;;5106256;28;19915;-86
2021/12/22 11:01:02;;;;;;;;;;;0.70;99.10;;;;;;5093478;28;20419;-86
2021/12/22 11:04:02;;;;;;;;;;;0.50;99.40;;;;;;5072662;28;20436;-85
2021/12/22 11:06:30;;;;;;;;;;;-0.20;99.90;;;;;;5087509;28;19915;-85
2021/12/22 11:09:01;;;;;;;;;;;-0.70;99.90;;;;;;5082909;28;19990;-86
2021/12/22 11:11:36;;;;;;;;;;;-1.00;99.90;;;;;;5080543;28;19951;-86
2021/12/22 11:14:06;;;;;;;;;;;-1.20;99.90;;;;;;5079462;28;19909;-86
2021/12/22 11:16:32;;;;;;;;;;;-1.30;99.90;;;;;;5076325;28;19908;-86
2021/12/22 11:19:07;;;;;;;;;;;-1.20;99.90;;;;;;5093243;28;19927;-86
2021/12/22 11:21:35;;;;;;;;;;;-1.10;99.90;;;;;;5058539;28;19908;-85
2021/12/22 11:24:00;;;;;;;;;;;-1.20;99.90;;;;;;5059220;28;19908;-86
2021/12/22 11:26:26;;;;;;;;;;;-1.30;99.90;;;;;;5097890;28;20381;-86
2021/12/22 11:28:51;;;;;;;;;;;-1.20;99.90;;;;;;5089948;28;19911;-86
2021/12/22 11:31:17;;;;;;;;;;;-1.30;99.90;;;;;;5098055;28;20270;-86
2021/12/22 11:33:44;;;;;;;;;;;-1.50;99.90;;;;;;5081694;28;19999;-86
2021/12/22 11:36:12;;;;;;;;;;;-1.40;99.90;;;;;;5099263;28;19908;-86
2021/12/22 11:38:38;;;;;;;;;;;-1.20;99.90;;;;;;5100234;28;19993;-86
2021/12/22 11:41:16;;;;;;;;;;;-1.10;99.90;;;;;;5102079;28;19923;-86
2021/12/22 11:43:43;;;;;;;;;;;-1.30;99.90;;;;;;5101235;28;19964;-86
2021/12/22 11:46:09;;;;;;;;;;;-1.30;99.90;;;;;;5101582;28;19919;-86
2021/12/22 11:48:35;;;;;;;;;;;-1.30;99.90;;;;;;5107659;28;19912;-86
2021/12/22 11:51:02;;;;;;;;;;;-1.30;99.90;;;;;;5102701;28;19952;-86
2021/12/22 11:53:48;;;;;;;;;;;-1.40;99.90;;;;;;5083167;28;20375;-86
2021/12/22 11:56:33;;;;;;;;;;;-1.40;99.90;;;;;;5069010;28;19908;-86
2021/12/22 11:58:59;;;;;;;;;;;-1.50;99.90;;;;;;5098169;28;19915;-86
2021/12/22 12:01:24;;;;;;;;;;;-1.60;99.90;;;;;;5085914;28;19908;-86
2021/12/22 12:03:50;;;;;;;;;;;-1.60;99.90;;;;;;5098014;28;19962;-86
2021/12/22 12:06:17;;;;;;;;;;;-1.60;99.90;;;;;;5099016;28;19908;-86
2021/12/22 12:08:53;;;;;;;;;;;-1.50;99.90;;;;;;5097837;28;19945;-86
2021/12/22 12:11:24;;;;;;;;;;;-1.30;99.90;;;;;;5099380;28;20002;-86
2021/12/22 12:13:57;;;;;;;;;;;-1.30;99.90;;;;;;5098484;28;20008;-86
2021/12/22 12:22:10;;;;;;;;;;;-1.30;99.90;;;;;;5097743;28;19996;-85
2021/12/22 12:24:38;;;;;;;;;;;-1.30;99.90;;;;;;5097637;28;20358;-87
2021/12/22 12:27:23;;;;;;;;;;;-1.10;99.90;;;;;;5079213;28;19912;-87
2021/12/22 12:30:17;;;;;;;;;;;-1.20;99.90;;;;;;5096430;28;19908;-87
2021/12/22 12:32:46;;;;;;;;;;;-1.10;99.90;;;;;;5078312;28;19909;-86
2021/12/22 12:35:17;;;;;;;;;;;-1.20;99.90;;;;;;5097061;28;19947;-86
2021/12/22 12:37:46;;;;;;;;;;;-1.20;99.90;;;;;;5078045;28;19915;-87
2021/12/22 12:40:11;;;;;;;;;;;-1.10;99.90;;;;;;5075959;28;20354;-86
2021/12/22 12:42:55;;;;;;;;;;;-1.10;99.90;;;;;;5075628;28;19915;-87
2021/12/22 12:45:39;;;;;;;;;;;-1.30;99.90;;;;;;5076227;28;20002;-86
2021/12/22 12:48:23;;;;;;;;;;;-1.30;99.90;;;;;;5092799;28;20290;-86
2021/12/22 12:51:07;;;;;;;;;;;-1.20;99.90;;;;;;5077665;28;20335;-86
2021/12/22 12:53:38;;;;;;;;;;;-1.10;99.90;;;;;;5080941;28;19912;-88
2021/12/22 12:56:08;;;;;;;;;;;-0.90;99.90;;;;;;5081368;28;20329;-88
2021/12/22 12:58:35;;;;;;;;;;;-0.90;99.90;;;;;;5073828;28;19915;-87
2021/12/22 13:01:00;;;;;;;;;;;-0.80;99.90;;;;;;5097857;28;19952;-89
2021/12/22 13:03:26;;;;;;;;;;;-0.90;99.90;;;;;;5097844;28;20289;-86
2021/12/22 13:05:51;;;;;;;;;;;-1.00;99.90;;;;;;5115625;28;19931;-87
2021/12/22 13:08:17;;;;;;;;;;;-1.00;99.90;;;;;;5097244;28;19911;-87
2021/12/22 13:10:50;;;;;;;;;;;-1.10;99.90;;;;;;5097742;28;19908;-87
2021/12/22 13:13:19;;;;;;;;;;;-1.20;99.90;;;;;;5098065;28;19908;-87
2021/12/22 13:15:49;;;;;;;;;;;-1.10;99.90;;;;;;5097628;28;20087;-87
2021/12/22 13:18:26;;;;;;;;;;;-1.20;99.90;;;;;;5099529;28;19908;-87
2021/12/22 13:20:55;;;;;;;;;;;-1.20;99.90;;;;;;5101105;28;19908;-87
2021/12/22 13:23:22;;;;;;;;;;;-1.30;99.90;;;;;;5097821;28;20362;-86
2021/12/22 13:25:49;;;;;;;;;;;-1.20;99.90;;;;;;5097486;28;19907;-85
2021/12/22 13:28:16;;;;;;;;;;;-1.30;99.90;;;;;;5115964;28;19916;-87
2021/12/22 13:30:43;;;;;;;;;;;-1.40;99.90;;;;;;5088748;28;19911;-87
2021/12/22 13:33:10;;;;;;;;;;;-1.40;99.90;;;;;;5077629;28;20401;-87
2021/12/22 13:35:46;;;;;;;;;;;-1.40;99.90;;;;;;5095865;28;19991;-87
2021/12/22 13:38:18;;;;;;;;;;;-1.40;99.90;;;;;;5101711;28;19924;-88
2021/12/22 13:40:43;;;;;;;;;;;-1.30;99.90;;;;;;5080212;28;20381;-87
2021/12/22 13:43:35;;;;;;;;;;;-1.20;99.90;;;;;;5078039;28;19909;-87
2021/12/22 13:46:07;;;;;;;;;;;-1.20;99.90;;;;;;5075274;28;19912;-87
2021/12/22 13:48:34;;;;;;;;;;;-1.20;99.90;;;;;;5097026;28;20003;-87
2021/12/22 13:51:03;;;;;;;;;;;-1.20;99.90;;;;;;5078235;28;20333;-87
2021/12/22 13:53:30;;;;;;;;;;;-1.20;99.90;;;;;;5078110;28;19913;-87
2021/12/22 13:55:56;;;;;;;;;;;-1.30;99.90;;;;;;5079813;28;19908;-87
2021/12/22 13:58:35;;;;;;;;;;;-1.20;99.90;;;;;;5085117;28;19904;-91
2021/12/22 14:01:33;;;;;;;;;;;-1.10;99.90;;;;;;5108993;28;19916;-87
2021/12/22 14:03:58;;;;;;;;;;;-1.00;99.90;;;;;;5077686;28;19908;-87
2021/12/22 14:06:26;;;;;;;;;;;-1.00;99.90;;;;;;5077911;28;19931;-88
2021/12/22 14:09:18;;;;;;;;;;;-1.10;99.90;;;;;;5076825;28;19976;-87
2021/12/22 14:11:49;;;;;;;;;;;-1.10;99.90;;;;;;5073483;28;19915;-87
2021/12/22 14:14:23;;;;;;;;;;;-1.20;99.90;;;;;;5077013;28;20363;-87
2021/12/22 14:16:50;;;;;;;;;;;-1.10;99.90;;;;;;5077229;28;20363;-87
2021/12/22 14:19:17;;;;;;;;;;;-1.10;99.90;;;;;;5077561;28;19908;-87
2021/12/22 14:21:42;;;;;;;;;;;-1.20;99.90;;;;;;5094984;28;19915;-88
2021/12/22 14:24:08;;;;;;;;;;;-1.20;99.90;;;;;;5077181;28;19908;-87
2021/12/22 14:26:34;;;;;;;;;;;-1.20;99.90;;;;;;5078996;28;19973;-87
2021/12/22 14:29:04;;;;;;;;;;;-1.10;99.90;;;;;;5078308;28;19916;-88
2021/12/22 14:31:30;;;;;;;;;;;-1.30;99.90;;;;;;5096916;28;20335;-87
2021/12/22 14:34:08;;;;;;;;;;;-1.50;99.90;;;;;;5096694;28;19908;-87
2021/12/22 14:36:41;;;;;;;;;;;-1.50;99.90;;;;;;5079715;28;19908;-87
2021/12/22 14:39:06;;;;;;;;;;;-1.60;99.90;;;;;;5079522;28;20279;-87
2021/12/22 14:41:32;;;;;;;;;;;-1.60;99.90;;;;;;5095895;28;19908;-88
2021/12/22 14:43:57;;;;;;;;;;;-1.70;99.90;;;;;;5096640;28;20007;-88
2021/12/22 14:46:30;;;;;;;;;;;-1.70;99.90;;;;;;5079096;28;19908;-88
2021/12/22 14:48:58;;;;;;;;;;;-1.50;99.90;;;;;;5096800;28;20381;-88